createdAt,value
2019-06-01T00:02:31.099Z,12.87
2019-06-01T00:05:11.786Z,11.53
2019-06-01T00:07:52.660Z,10.97
2019-06-01T00:10:33.331Z,11.50
2019-06-01T00:13:14.494Z,12.43
2019-06-01T00:15:55.929Z,11.17
2019-06-01T00:18:37.396Z,10.67
2019-06-01T00:21:18.982Z,10.83
2019-06-01T00:23:59.491Z,11.50
2019-06-01T00:26:41.678Z,11.80
2019-06-01T00:29:23.285Z,12.00
2019-06-01T00:32:04.049Z,10.87
2019-06-01T00:34:45.772Z,10.30
2019-06-01T00:37:27.289Z,10.30
2019-06-01T00:40:08.001Z,11.07
2019-06-01T00:42:48.508Z,10.97
2019-06-01T00:45:30.054Z,11.63
2019-06-01T00:48:11.502Z,10.57
2019-06-01T00:50:53.258Z,11.13
2019-06-01T00:53:34.497Z,10.77
2019-06-01T00:56:15.192Z,10.70
2019-06-01T00:58:55.748Z,10.03
2019-06-01T01:01:37.263Z,11.00
2019-06-01T01:04:18.907Z,10.70
2019-06-01T01:07:00.247Z,10.33
2019-06-01T01:09:41.821Z,11.73
2019-06-01T01:12:22.819Z,9.87
2019-06-01T01:15:04.506Z,10.70
2019-06-01T01:17:45.746Z,10.97
2019-06-01T01:20:27.033Z,11.33
2019-06-01T01:23:08.526Z,11.63
2019-06-01T01:25:50.489Z,11.50
2019-06-01T01:28:31.530Z,11.17
2019-06-01T01:31:14.357Z,11.47
2019-06-01T01:33:55.719Z,11.03
2019-06-01T01:36:37.068Z,10.87
2019-06-01T01:39:18.463Z,11.37
2019-06-01T01:41:59.795Z,11.53
2019-06-01T01:44:41.324Z,11.27
2019-06-01T01:47:21.906Z,11.67
2019-06-01T01:50:03.047Z,12.67
2019-06-01T01:52:44.348Z,13.07
2019-06-01T01:55:25.276Z,13.20
2019-06-01T01:58:06.646Z,11.10
2019-06-01T02:00:47.730Z,14.57
2019-06-01T02:03:28.979Z,10.73
2019-06-01T02:06:09.776Z,12.30
2019-06-01T02:08:51.071Z,11.87
2019-06-01T02:11:32.275Z,10.67
2019-06-01T02:14:13.073Z,12.20
2019-06-01T02:16:56.125Z,12.63
2019-06-01T02:19:37.341Z,12.03
2019-06-01T02:22:18.950Z,11.83
2019-06-01T02:25:00.207Z,12.70
2019-06-01T02:27:41.717Z,11.40
2019-06-01T02:30:23.189Z,10.90
2019-06-01T02:33:04.859Z,13.10
2019-06-01T02:35:46.202Z,12.13
2019-06-01T02:38:27.759Z,12.23
2019-06-01T02:41:08.623Z,12.13
2019-06-01T02:43:50.004Z,11.53
2019-06-01T02:46:30.685Z,13.20
2019-06-01T02:49:11.801Z,13.03
2019-06-01T02:51:53.309Z,13.20
2019-06-01T02:54:34.271Z,13.30
2019-06-01T03:00:00.333Z,14.63
2019-06-01T03:02:49.438Z,14.57
2019-06-01T03:05:31.295Z,15.63
2019-06-01T03:08:12.754Z,14.43
2019-06-01T03:10:53.632Z,14.63
2019-06-01T03:13:34.985Z,15.27
2019-06-01T03:16:16.519Z,16.07
2019-06-01T03:18:57.173Z,15.13
2019-06-01T03:21:38.736Z,15.70
2019-06-01T03:24:20.154Z,16.37
2019-06-01T03:27:02.932Z,15.60
2019-06-01T03:29:44.801Z,15.00
2019-06-01T03:32:35.915Z,16.30
2019-06-01T03:35:08.915Z,17.97
2019-06-01T03:37:49.647Z,17.93
2019-06-01T03:40:31.105Z,19.23
2019-06-01T03:43:11.961Z,19.37
2019-06-01T03:45:53.385Z,18.10
2019-06-01T03:48:34.150Z,17.97
2019-06-01T03:51:14.974Z,17.93
2019-06-01T03:53:56.859Z,18.90
2019-06-01T03:56:37.819Z,18.57
2019-06-01T03:59:18.563Z,18.10
2019-06-01T04:02:00.873Z,19.43
2019-06-01T04:04:42.211Z,20.07
2019-06-01T04:07:23.440Z,20.33
2019-06-01T04:10:05.668Z,20.57
2019-06-01T04:12:46.824Z,20.63
2019-06-01T04:15:27.781Z,20.40
2019-06-01T04:18:09.901Z,34.93
2019-06-01T04:20:51.324Z,19.43
2019-06-01T04:23:32.851Z,21.07
2019-06-01T04:26:13.776Z,20.60
2019-06-01T04:28:55.175Z,22.50
2019-06-01T04:31:35.951Z,19.97
2019-06-01T04:34:16.645Z,21.03
2019-06-01T04:36:58.199Z,20.53
2019-06-01T04:39:38.989Z,19.93
2019-06-01T04:42:20.357Z,19.67
2019-06-01T04:45:02.144Z,20.57
2019-06-01T04:47:42.990Z,19.00
2019-06-01T04:50:24.421Z,20.47
2019-06-01T04:53:06.815Z,19.97
2019-06-01T04:55:47.654Z,20.10
2019-06-01T04:58:28.961Z,20.40
2019-06-01T05:01:09.639Z,20.50
2019-06-01T05:03:51.300Z,19.53
2019-06-01T05:06:32.654Z,21.67
2019-06-01T05:09:15.533Z,19.17
2019-06-01T05:11:56.988Z,20.77
2019-06-01T05:14:37.968Z,19.30
2019-06-01T05:17:18.722Z,20.57
2019-06-01T05:20:00.018Z,19.23
2019-06-01T05:22:41.290Z,17.33
2019-06-01T05:25:22.616Z,17.70
2019-06-01T05:27:52.144Z,17.87
2019-06-01T05:30:40.649Z,16.23
2019-06-01T05:33:36.956Z,15.53
2019-06-01T05:36:12.120Z,15.10
2019-06-01T05:38:53.533Z,14.50
2019-06-01T05:41:34.920Z,12.17
2019-06-01T05:44:17.022Z,11.40
2019-06-01T05:46:58.110Z,12.07
2019-06-01T05:49:38.872Z,11.43
2019-06-01T05:52:19.583Z,12.03
2019-06-01T05:55:01.173Z,12.33
2019-06-01T05:57:42.523Z,12.33
2019-06-01T06:00:24.046Z,10.93
2019-06-01T06:03:05.031Z,10.53
2019-06-01T06:05:46.592Z,10.23
2019-06-01T06:08:27.411Z,10.67
2019-06-01T06:11:08.908Z,11.40
2019-06-01T06:13:50.537Z,11.63
2019-06-01T06:16:31.326Z,10.17
2019-06-01T06:19:13.897Z,10.60
2019-06-01T06:21:54.920Z,10.33
2019-06-01T06:24:36.371Z,12.00
2019-06-01T06:27:18.525Z,10.67
2019-06-01T06:29:59.272Z,11.63
2019-06-01T06:32:39.994Z,11.33
2019-06-01T06:35:21.603Z,11.97
2019-06-01T06:38:02.173Z,11.50
2019-06-01T06:40:43.179Z,10.87
2019-06-01T06:43:32.243Z,10.13
2019-06-01T06:46:07.104Z,9.53
2019-06-01T06:48:48.732Z,10.73
2019-06-01T06:51:30.139Z,10.77
2019-06-01T06:54:14.449Z,10.70
2019-06-01T06:56:53.997Z,10.13
2019-06-01T06:59:35.463Z,10.13
2019-06-01T07:02:16.735Z,10.50
2019-06-01T07:04:58.034Z,10.50
2019-06-01T07:07:39.215Z,10.03
2019-06-01T07:10:22.079Z,10.33
2019-06-01T07:13:03.143Z,10.90
2019-06-01T07:15:44.798Z,9.77
2019-06-01T07:18:25.880Z,9.50
2019-06-01T07:21:07.415Z,8.40
2019-06-01T07:23:48.988Z,10.17
2019-06-01T07:26:30.509Z,9.00
2019-06-01T07:29:11.590Z,9.50
2019-06-01T07:31:52.479Z,8.97
2019-06-01T07:34:34.532Z,9.33
2019-06-01T07:37:12.317Z,9.90
2019-06-01T07:39:56.757Z,10.07
2019-06-01T07:42:38.341Z,9.13
2019-06-01T07:45:07.958Z,10.67
2019-06-01T07:47:56.555Z,9.97
2019-06-01T07:50:45.128Z,9.53
2019-06-01T07:53:27.435Z,10.40
2019-06-01T07:56:08.484Z,9.37
2019-06-01T07:58:49.689Z,10.30
2019-06-01T08:01:32.719Z,11.43
2019-06-01T08:04:13.646Z,10.73
2019-06-01T08:06:54.479Z,10.30
2019-06-01T08:09:36.169Z,11.43
2019-06-01T08:12:17.497Z,12.03
2019-06-01T08:14:58.351Z,10.77
2019-06-01T08:17:39.945Z,10.40
2019-06-01T08:20:21.923Z,11.40
2019-06-01T08:23:03.420Z,10.50
2019-06-01T08:25:45.200Z,10.87
2019-06-01T08:28:26.506Z,11.60
2019-06-01T08:31:07.697Z,10.17
2019-06-01T08:33:49.305Z,10.07
2019-06-01T08:36:31.635Z,9.97
2019-06-01T08:39:12.723Z,10.00
2019-06-01T08:41:53.811Z,11.67
2019-06-01T08:44:35.107Z,10.97
2019-06-01T08:47:16.376Z,11.50
2019-06-01T08:49:59.109Z,10.60
2019-06-01T08:52:41.598Z,11.30
2019-06-01T08:55:24.007Z,12.00
2019-06-01T08:58:05.626Z,10.27
2019-06-01T09:00:47.050Z,11.63
2019-06-01T09:03:29.764Z,10.87
2019-06-01T09:06:11.239Z,10.10
2019-06-01T09:08:52.966Z,10.63
2019-06-01T09:11:35.320Z,11.00
2019-06-01T09:14:16.075Z,12.80
2019-06-01T09:16:56.747Z,11.50
2019-06-01T09:19:38.277Z,12.10
2019-06-01T09:22:19.783Z,12.70
2019-06-01T09:25:01.375Z,10.97
2019-06-01T09:27:42.769Z,9.93
2019-06-01T09:30:23.466Z,10.23
2019-06-01T09:33:04.285Z,10.60
2019-06-01T09:35:55.601Z,10.93
2019-06-01T09:38:27.892Z,12.57
2019-06-01T09:41:09.238Z,12.30
2019-06-01T09:43:50.876Z,13.00
2019-06-01T09:46:32.668Z,10.87
2019-06-01T09:49:14.637Z,9.43
2019-06-01T09:51:55.938Z,15.93
2019-06-01T09:54:38.135Z,12.30
2019-06-01T09:57:19.592Z,15.73
2019-06-01T10:00:01.030Z,15.60
2019-06-01T10:02:42.603Z,13.17
2019-06-01T10:05:23.372Z,12.27
2019-06-01T10:08:04.815Z,12.37
2019-06-01T10:10:46.392Z,12.43
2019-06-01T10:13:27.952Z,11.60
2019-06-01T10:16:09.363Z,12.97
2019-06-01T10:18:50.923Z,10.50
2019-06-01T10:21:32.143Z,9.43
2019-06-01T10:24:02.011Z,8.30
2019-06-01T10:26:50.693Z,10.27
2019-06-01T10:29:32.604Z,9.60
2019-06-01T10:32:14.091Z,10.57
2019-06-01T10:34:55.743Z,11.17
2019-06-01T10:37:37.690Z,12.07
2019-06-01T10:40:18.940Z,10.80
2019-06-01T10:43:00.219Z,12.60
2019-06-01T10:45:42.058Z,10.27
2019-06-01T10:48:23.374Z,11.00
2019-06-01T10:51:04.823Z,9.57
2019-06-01T10:53:46.440Z,11.17
2019-06-01T10:56:28.119Z,9.87
2019-06-01T10:59:08.709Z,9.13
2019-06-01T11:01:49.432Z,9.67
2019-06-01T11:04:30.813Z,9.77
2019-06-01T11:07:12.128Z,8.77
2019-06-01T11:09:53.042Z,10.07
2019-06-01T11:12:34.903Z,10.83
2019-06-01T11:15:16.213Z,11.00
2019-06-01T11:17:57.773Z,9.03
2019-06-01T11:20:39.383Z,7.90
2019-06-01T11:23:20.061Z,7.57
2019-06-01T11:26:01.503Z,6.90
2019-06-01T11:28:42.331Z,7.40
2019-06-01T11:34:03.256Z,9.60
2019-06-01T11:37:03.191Z,8.47
2019-06-01T11:39:27.257Z,7.30
2019-06-01T11:42:08.385Z,6.63
2019-06-01T11:44:49.734Z,6.37
2019-06-01T11:47:30.387Z,6.20
2019-06-01T11:50:11.545Z,4.90
2019-06-01T11:52:53.311Z,4.90
2019-06-01T11:55:35.135Z,4.60
2019-06-01T11:58:16.032Z,5.42
2019-06-01T12:00:57.600Z,6.12
2019-06-01T12:03:39.691Z,4.30
2019-06-01T12:06:20.815Z,4.20
2019-06-01T12:08:50.245Z,2.83
2019-06-01T12:11:39.804Z,3.55
2019-06-01T12:14:28.908Z,3.72
2019-06-01T12:17:10.126Z,4.72
2019-06-01T12:19:51.483Z,3.25
2019-06-01T12:22:33.108Z,3.00
2019-06-01T12:25:14.108Z,2.30
2019-06-01T12:27:55.866Z,3.30
2019-06-01T12:30:37.538Z,3.37
2019-06-01T12:33:19.242Z,9.68
2019-06-01T12:36:00.841Z,6.58
2019-06-01T12:39:01.133Z,3.67
2019-06-01T12:41:43.521Z,3.65
2019-06-01T12:44:24.834Z,3.27
2019-06-01T12:47:06.228Z,3.80
2019-06-01T12:49:48.200Z,3.92
2019-06-01T12:52:29.459Z,3.02
2019-06-01T12:55:10.910Z,3.70
2019-06-01T12:57:52.262Z,3.05
2019-06-01T13:00:33.219Z,3.22
2019-06-01T13:03:14.702Z,3.10
2019-06-01T13:05:55.726Z,2.30
2019-06-01T13:08:37.369Z,2.35
2019-06-01T13:11:18.871Z,4.17
2019-06-01T13:13:59.776Z,3.00
2019-06-01T13:16:43.885Z,2.50
2019-06-01T13:19:24.289Z,2.83
2019-06-01T13:22:05.565Z,2.90
2019-06-01T13:24:47.919Z,2.50
2019-06-01T13:27:28.980Z,2.60
2019-06-01T13:30:10.575Z,3.27
2019-06-01T13:32:52.802Z,2.62
2019-06-01T13:35:33.699Z,2.65
2019-06-01T13:38:14.698Z,2.83
2019-06-01T13:40:55.529Z,4.03
2019-06-01T13:43:37.103Z,4.25
2019-06-01T13:46:18.211Z,5.70
2019-06-01T13:48:59.345Z,3.37
2019-06-01T13:51:40.953Z,2.67
2019-06-01T13:54:21.744Z,2.75
2019-06-01T13:57:02.430Z,3.37
2019-06-01T13:59:44.442Z,3.42
2019-06-01T14:02:26.081Z,3.25
2019-06-01T14:05:07.098Z,7.28
2019-06-01T14:07:49.509Z,2.75
2019-06-01T14:10:31.188Z,3.10
2019-06-01T14:13:12.753Z,2.10
2019-06-01T14:15:54.067Z,4.85
2019-06-01T14:18:35.530Z,12.33
2019-06-01T14:21:17.108Z,3.52
2019-06-01T14:23:58.123Z,5.62
2019-06-01T14:29:17.801Z,2.35
2019-06-01T14:31:58.713Z,2.52
2019-06-01T14:34:39.454Z,2.25
2019-06-01T14:40:06.467Z,2.27
2019-06-01T14:42:49.023Z,2.30
2019-06-01T14:45:30.536Z,2.15
2019-06-01T14:48:12.396Z,1.85
2019-06-01T14:50:54.214Z,2.50
2019-06-01T14:53:36.034Z,1.95
2019-06-01T14:56:17.434Z,3.08
2019-06-01T14:59:01.917Z,2.10
2019-06-01T15:01:41.407Z,2.67
2019-06-01T15:04:10.921Z,2.47
2019-06-01T15:10:10.171Z,2.92
2019-06-01T15:12:56.493Z,1.95
2019-06-01T15:15:37.971Z,2.80
2019-06-01T15:18:19.453Z,2.00
2019-06-01T15:21:02.191Z,2.85
2019-06-01T15:23:43.986Z,2.85
2019-06-01T15:26:25.177Z,2.42
2019-06-01T15:29:06.613Z,4.22
2019-06-01T15:31:47.568Z,3.33
2019-06-01T15:34:28.474Z,2.80
2019-06-01T15:37:10.227Z,3.62
2019-06-01T15:39:52.597Z,2.62
2019-06-01T15:42:22.125Z,4.37
2019-06-01T15:45:10.918Z,2.55
2019-06-01T15:47:53.310Z,1.98
2019-06-01T15:50:36.568Z,3.90
2019-06-01T15:53:17.854Z,3.10
2019-06-01T15:55:59.238Z,2.45
2019-06-01T15:58:52.505Z,3.47
2019-06-01T16:01:22.250Z,2.33
2019-06-01T16:04:03.478Z,2.08
2019-06-01T16:06:45.057Z,3.10
2019-06-01T16:09:41.710Z,2.42
2019-06-01T16:12:09.464Z,2.20
2019-06-01T16:14:50.567Z,2.00
2019-06-01T16:17:32.082Z,2.45
2019-06-01T16:20:13.612Z,2.08
2019-06-01T16:22:55.999Z,2.37
2019-06-01T16:25:37.754Z,3.00
2019-06-01T16:28:18.490Z,2.98
2019-06-01T16:31:00.586Z,2.20
2019-06-01T16:33:42.066Z,3.05
2019-06-01T16:36:23.614Z,2.15
2019-06-01T16:39:07.907Z,2.35
2019-06-01T16:41:47.701Z,2.20
2019-06-01T16:44:29.201Z,2.95
2019-06-01T16:47:10.497Z,2.37
2019-06-01T16:49:51.153Z,3.50
2019-06-01T16:52:31.866Z,2.65
2019-06-01T16:55:12.735Z,2.77
2019-06-01T16:57:53.425Z,3.22
2019-06-01T17:00:34.248Z,2.60
2019-06-01T17:03:15.054Z,3.77
2019-06-01T17:05:56.678Z,4.72
2019-06-01T17:08:37.942Z,3.72
2019-06-01T17:11:19.697Z,2.35
2019-06-01T17:14:00.779Z,2.40
2019-06-01T17:16:42.366Z,2.30
2019-06-01T17:19:24.008Z,2.55
2019-06-01T17:22:05.617Z,2.22
2019-06-01T17:24:47.237Z,3.47
2019-06-01T17:27:28.423Z,2.60
2019-06-01T17:30:12.024Z,3.00
2019-06-01T17:32:53.002Z,3.20
2019-06-01T17:35:36.243Z,1.82
2019-06-01T17:38:17.204Z,4.80
2019-06-01T17:40:58.542Z,3.47
2019-06-01T17:43:40.254Z,3.95
2019-06-01T17:46:21.166Z,2.70
2019-06-01T17:49:04.010Z,5.75
2019-06-01T17:51:45.780Z,3.55
2019-06-01T17:54:27.061Z,3.42
2019-06-01T17:57:07.781Z,5.90
2019-06-01T17:59:49.480Z,5.08
2019-06-01T18:02:30.746Z,5.70
2019-06-01T18:05:12.192Z,4.78
2019-06-01T18:07:53.903Z,6.85
2019-06-01T18:10:35.156Z,10.50
2019-06-01T18:13:16.093Z,6.37
2019-06-01T18:15:57.652Z,6.97
2019-06-01T18:18:27.094Z,6.12
2019-06-01T18:21:15.736Z,7.12
2019-06-01T18:24:06.241Z,8.68
2019-06-01T18:26:46.906Z,8.40
2019-06-01T18:29:27.537Z,6.83
2019-06-01T18:32:09.513Z,9.78
2019-06-01T18:34:51.252Z,8.23
2019-06-01T18:37:32.211Z,8.35
2019-06-01T18:40:14.557Z,7.80
2019-06-01T18:42:55.766Z,8.93
2019-06-01T18:45:38.980Z,8.13
2019-06-01T18:48:20.790Z,7.95
2019-06-01T18:51:02.003Z,8.50
2019-06-01T18:53:43.685Z,8.38
2019-06-01T18:56:25.115Z,8.23
2019-06-01T18:59:08.415Z,9.97
2019-06-01T19:01:50.028Z,7.70
2019-06-01T19:04:31.698Z,8.18
2019-06-01T19:07:13.362Z,8.97
2019-06-01T19:09:54.414Z,8.47
2019-06-01T19:12:35.802Z,9.13
2019-06-01T19:15:26.755Z,10.87
2019-06-01T19:18:00.734Z,10.70
2019-06-01T19:23:24.892Z,10.30
2019-06-01T19:26:10.165Z,11.30
2019-06-01T19:28:50.053Z,11.50
2019-06-01T19:31:31.640Z,11.97
2019-06-01T19:34:13.104Z,10.20
2019-06-01T19:36:54.501Z,10.80
2019-06-01T19:39:36.125Z,13.23
2019-06-01T19:42:18.540Z,11.63
2019-06-01T19:45:00.388Z,10.33
2019-06-01T19:47:41.990Z,10.23
2019-06-01T19:50:23.428Z,11.23
2019-06-01T19:53:04.833Z,11.67
2019-06-01T19:55:46.490Z,11.23
2019-06-01T19:58:27.384Z,11.43
2019-06-01T20:01:08.461Z,11.93
2019-06-01T20:03:50.462Z,13.43
2019-06-01T20:06:32.390Z,12.00
2019-06-01T20:09:14.973Z,12.93
2019-06-01T20:12:01.801Z,13.80
2019-06-01T20:14:40.775Z,13.43
2019-06-01T20:17:26.223Z,13.30
2019-06-01T20:20:05.872Z,14.13
2019-06-01T20:22:47.463Z,12.87
2019-06-01T20:25:29.255Z,14.27
2019-06-01T20:28:11.407Z,15.10
2019-06-01T20:30:52.327Z,13.90
2019-06-01T20:33:33.763Z,13.23
2019-06-01T20:36:16.138Z,14.87
2019-06-01T20:38:56.889Z,14.00
2019-06-01T20:41:38.898Z,14.83
2019-06-01T20:44:20.978Z,14.50
2019-06-01T20:47:02.962Z,15.27
2019-06-01T20:49:44.346Z,15.23
2019-06-01T20:52:25.598Z,15.07
2019-06-01T20:55:06.428Z,14.73
2019-06-01T20:57:48.173Z,16.23
2019-06-01T21:00:31.937Z,17.43
2019-06-01T21:03:13.707Z,15.30
2019-06-01T21:05:56.054Z,13.90
2019-06-01T21:08:38.898Z,14.60
2019-06-01T21:11:09.174Z,16.43
2019-06-01T21:13:58.171Z,16.93
2019-06-01T21:16:47.121Z,17.80
2019-06-01T21:19:28.460Z,17.07
2019-06-01T21:22:10.118Z,18.60
2019-06-01T21:24:51.804Z,16.93
2019-06-01T21:27:33.775Z,15.97
2019-06-01T21:30:16.969Z,15.60
2019-06-01T21:33:00.135Z,18.27
2019-06-01T21:35:41.585Z,19.13
2019-06-01T21:41:19.930Z,16.43
2019-06-01T21:44:00.854Z,17.63
2019-06-01T21:46:41.701Z,18.10
2019-06-01T21:49:24.111Z,17.57
2019-06-01T21:52:05.472Z,17.37
2019-06-01T21:54:47.215Z,19.33
2019-06-01T21:57:28.656Z,20.90
2019-06-01T22:00:10.670Z,20.63
2019-06-01T22:02:51.838Z,19.70
2019-06-01T22:05:32.604Z,19.80
2019-06-01T22:08:14.012Z,19.47
2019-06-01T22:10:55.208Z,20.43
2019-06-01T22:13:36.630Z,21.07
2019-06-01T22:16:19.500Z,22.37
2019-06-01T22:19:00.720Z,20.70
2019-06-01T22:21:41.478Z,21.57
2019-06-01T22:24:23.876Z,21.67
2019-06-01T22:27:05.505Z,20.17
2019-06-01T22:29:46.297Z,21.47
2019-06-01T22:32:30.044Z,21.80
2019-06-01T22:35:09.993Z,21.13
2019-06-01T22:37:51.543Z,22.60
2019-06-01T22:40:33.060Z,21.37
2019-06-01T22:43:14.445Z,22.50
2019-06-01T22:45:55.911Z,24.33
2019-06-01T22:48:37.541Z,23.03
2019-06-01T22:51:18.274Z,23.87
2019-06-01T22:53:59.920Z,22.97
2019-06-01T22:56:41.171Z,24.30
2019-06-01T22:59:22.627Z,28.27
2019-06-01T23:02:04.181Z,25.20
2019-06-01T23:04:45.469Z,24.20
2019-06-01T23:07:27.308Z,25.20
2019-06-01T23:10:08.394Z,25.87
2019-06-01T23:12:49.360Z,25.83
2019-06-01T23:15:31.854Z,25.67
2019-06-01T23:18:13.094Z,26.43
2019-06-01T23:20:54.073Z,25.30
2019-06-01T23:23:35.695Z,26.17
2019-06-01T23:26:17.226Z,25.07
2019-06-01T23:28:57.970Z,24.90
2019-06-01T23:31:39.544Z,26.17
2019-06-01T23:34:20.498Z,26.17
2019-06-01T23:37:02.093Z,25.07
2019-06-01T23:39:43.614Z,30.17
2019-06-01T23:42:25.104Z,25.13
2019-06-01T23:45:09.306Z,24.40
2019-06-01T23:47:50.493Z,25.87
2019-06-01T23:50:32.522Z,24.73
2019-06-01T23:53:14.118Z,23.40
2019-06-01T23:55:55.198Z,22.87
2019-06-01T23:58:36.494Z,23.87
